Portada
METAR-TAF:

METAR-TAF

Aeropuertos :

Van, Turquía

latitud: 38-27N, longitud: 043-19E, altitud: 1667 m

Observación

El informe se hizo hace 36 minutos, a las 23:50 UTC
Viento 5 kt del este-noreste
Temperatura -1°C
Humedad 93%
Presión 1017 hPa
Visibilidad 10 km o más
Nubes dispersas a una altura de 3500 ft
Nubes dispersas a una altura de 7000 ft

METAR: LTCI 132350Z 07005KT 9999 SCT035 SCT070 M01/M02 Q1017 NOSIG

Hora: 03:26 (00:26 UTC)

Pronóstico

El informe se hizo hace 1 hora y 46 minutos, a las 22:40 UTC
Pronóstico válido del 14 a las 00 UTC al 14 a las 09 UTC
Viento 7 kt del este
Visibilidad 10 km o más
Nubes dispersas a una altura de 3500 ft
Nubes dispersas a una altura de 7000 ft

TAF: LTCI 132240Z 1400/1409 09007KT 9999 SCT035 SCT070

Observaciones y pronósticos meteorológicos de más de 4000 aeropuertos (mensajes METAR y TAF).

Los puntos amarillos y rojos representan las estaciones disponibles.

Ponga el ratón en el punto deseado para ver el nombre de la estación.

Haga clic para ver las observaciones y los pronósticos meteorológicos.

Para cambiar el mapa : haga clic en los botones verdes con una cruz de color negro para hacer un zoom, en el botón verde con un guión para alejar o en las flechas verdes para mapas adyacentes.


METAR-TAF: